createdAt,value
2019-01-16T00:00:59.579Z,1001.56
2019-01-16T00:01:59.575Z,1001.53
2019-01-16T00:02:59.561Z,1001.50
2019-01-16T00:03:59.657Z,1001.49
2019-01-16T00:04:59.531Z,1001.50
2019-01-16T00:05:59.568Z,1001.50
2019-01-16T00:06:59.538Z,1001.53
2019-01-16T00:07:59.478Z,1001.49
2019-01-16T00:08:59.486Z,1001.43
2019-01-16T00:09:59.490Z,1001.43
2019-01-16T00:10:59.485Z,1001.43
2019-01-16T00:11:59.487Z,1001.45
2019-01-16T00:12:59.435Z,1001.35
2019-01-16T00:13:59.442Z,1001.42
2019-01-16T00:14:59.410Z,1001.40
2019-01-16T00:15:59.423Z,1001.36
2019-01-16T00:16:59.404Z,1001.38
2019-01-16T00:17:59.425Z,1001.40
2019-01-16T00:18:59.375Z,1001.36
2019-01-16T00:19:59.379Z,1001.36
2019-01-16T00:20:59.360Z,1001.41
2019-01-16T00:21:59.367Z,1001.38
2019-01-16T00:22:59.330Z,1001.35
2019-01-16T00:23:59.328Z,1001.33
2019-01-16T00:24:59.303Z,1001.35
2019-01-16T00:25:59.291Z,1001.30
2019-01-16T00:26:59.278Z,1001.29
2019-01-16T00:27:59.270Z,1001.26
2019-01-16T00:28:59.255Z,1001.25
2019-01-16T00:29:59.279Z,1001.26
2019-01-16T00:30:59.358Z,1001.27
2019-01-16T00:31:59.225Z,1001.23
2019-01-16T00:32:59.256Z,1001.25
2019-01-16T00:33:59.215Z,1001.21
2019-01-16T00:34:59.235Z,1001.26
2019-01-16T00:35:59.197Z,1001.25
2019-01-16T00:36:59.210Z,1001.20
2019-01-16T00:37:59.193Z,1001.19
2019-01-16T00:38:59.162Z,1001.22
2019-01-16T00:39:59.200Z,1001.22
2019-01-16T00:40:59.138Z,1001.18
2019-01-16T00:41:59.140Z,1001.16
2019-01-16T00:42:59.134Z,1001.12
2019-01-16T00:43:59.136Z,1001.10
2019-01-16T00:44:59.091Z,1001.15
2019-01-16T00:45:59.099Z,1001.16
2019-01-16T00:46:59.069Z,1001.07
2019-01-16T00:47:59.077Z,1001.11
2019-01-16T00:48:59.062Z,1001.12
2019-01-16T00:49:59.028Z,1001.16
2019-01-16T00:50:59.035Z,1001.07
2019-01-16T00:51:59.020Z,1001.09
2019-01-16T00:52:59.078Z,1001.07
2019-01-16T00:53:59.001Z,1001.10
2019-01-16T00:54:58.978Z,1001.10
2019-01-16T00:55:59.012Z,1001.04
2019-01-16T00:56:58.972Z,1001.01
2019-01-16T00:57:58.959Z,1001.08
2019-01-16T00:58:59.052Z,1001.05
2019-01-16T00:59:58.943Z,1001.08
2019-01-16T01:00:58.907Z,1001.07
2019-01-16T01:01:58.919Z,1001.07
2019-01-16T01:02:58.914Z,1001.06
2019-01-16T01:03:58.909Z,1001.10
2019-01-16T01:04:58.880Z,1001.06
2019-01-16T01:05:58.875Z,1001.02
2019-01-16T01:06:58.870Z,1000.99
2019-01-16T01:07:58.898Z,1001.02
2019-01-16T01:08:58.866Z,1001.00
2019-01-16T01:09:58.811Z,1001.00
2019-01-16T01:10:58.811Z,1000.99
2019-01-16T01:11:58.788Z,1001.02
2019-01-16T01:12:58.782Z,1001.00
2019-01-16T01:13:58.912Z,1001.01
2019-01-16T01:14:58.776Z,1001.00
2019-01-16T01:15:58.788Z,1000.99
2019-01-16T01:16:58.764Z,1000.99
2019-01-16T01:17:58.750Z,1001.00
2019-01-16T01:18:58.753Z,1001.04
2019-01-16T01:19:58.768Z,1000.97
2019-01-16T01:20:58.711Z,1000.98
2019-01-16T01:21:58.710Z,1001.00
2019-01-16T01:22:58.696Z,1000.97
2019-01-16T01:23:58.668Z,1000.94
2019-01-16T01:24:58.707Z,1000.98
2019-01-16T01:25:58.829Z,1000.98
2019-01-16T01:26:58.646Z,1000.97
2019-01-16T01:27:58.646Z,1001.00
2019-01-16T01:28:58.628Z,1000.94
2019-01-16T01:29:58.647Z,1000.99
2019-01-16T01:30:58.611Z,1000.96
2019-01-16T01:31:58.599Z,1001.00
2019-01-16T01:32:58.569Z,1000.99
2019-01-16T01:33:58.584Z,1000.98
2019-01-16T01:34:58.577Z,1001.02
2019-01-16T01:35:58.567Z,1000.97
2019-01-16T01:36:58.539Z,1001.00
2019-01-16T01:37:58.524Z,1001.00
2019-01-16T01:38:58.610Z,1001.00
2019-01-16T01:39:58.506Z,1001.02
2019-01-16T01:40:58.522Z,1001.03
2019-01-16T01:41:58.522Z,1001.03
2019-01-16T01:42:58.475Z,1001.06
2019-01-16T01:43:58.465Z,1000.97
2019-01-16T01:44:58.435Z,1001.03
2019-01-16T01:45:58.448Z,1001.00
2019-01-16T01:46:58.606Z,1000.98
2019-01-16T01:47:58.409Z,1000.99
2019-01-16T01:48:58.410Z,1000.99
2019-01-16T01:49:58.400Z,1001.00
2019-01-16T01:50:58.373Z,1000.99
2019-01-16T01:51:58.374Z,1000.97
2019-01-16T01:52:58.376Z,1001.05
2019-01-16T01:53:58.413Z,1001.00
2019-01-16T01:54:58.328Z,1000.96
2019-01-16T01:55:58.333Z,1000.96
2019-01-16T01:56:58.360Z,1000.95
2019-01-16T01:57:58.334Z,1000.97
2019-01-16T01:58:58.316Z,1000.98
2019-01-16T01:59:58.290Z,1000.93
2019-01-16T02:00:58.262Z,1000.94
2019-01-16T02:01:58.255Z,1000.87
2019-01-16T02:02:58.256Z,1000.96
2019-01-16T02:03:58.266Z,1000.97
2019-01-16T02:04:58.265Z,1000.93
2019-01-16T02:05:58.264Z,1000.91
2019-01-16T02:06:58.229Z,1000.90
2019-01-16T02:07:58.198Z,1000.90
2019-01-16T02:08:58.198Z,1000.88
2019-01-16T02:09:58.264Z,1000.85
2019-01-16T02:10:58.205Z,1000.85
2019-01-16T02:11:58.147Z,1000.86
2019-01-16T02:12:58.156Z,1000.87
2019-01-16T02:13:58.218Z,1000.84
2019-01-16T02:14:58.137Z,1000.80
2019-01-16T02:15:58.159Z,1000.84
2019-01-16T02:16:58.145Z,1000.80
2019-01-16T02:17:58.073Z,1000.78
2019-01-16T02:18:58.120Z,1000.74
2019-01-16T02:19:58.059Z,1000.73
2019-01-16T02:20:58.090Z,1000.71
2019-01-16T02:21:58.046Z,1000.72
2019-01-16T02:22:58.049Z,1000.72
2019-01-16T02:23:58.126Z,1000.73
2019-01-16T02:24:58.077Z,1000.71
2019-01-16T02:25:58.014Z,1000.71
2019-01-16T02:26:57.986Z,1000.71
2019-01-16T02:27:58.017Z,1000.71
2019-01-16T02:28:57.990Z,1000.73
2019-01-16T02:29:57.969Z,1000.72
2019-01-16T02:30:57.942Z,1000.75
2019-01-16T02:31:57.951Z,1000.77
2019-01-16T02:32:57.949Z,1000.75
2019-01-16T02:33:57.924Z,1000.71
2019-01-16T02:34:57.924Z,1000.72
2019-01-16T02:35:57.925Z,1000.68
2019-01-16T02:36:57.872Z,1000.71
2019-01-16T02:37:57.877Z,1000.71
2019-01-16T02:38:57.867Z,1000.73
2019-01-16T02:39:57.869Z,1000.70
2019-01-16T02:40:57.882Z,1000.71
2019-01-16T02:41:57.818Z,1000.70
2019-01-16T02:42:57.808Z,1000.68
2019-01-16T02:43:57.823Z,1000.68
2019-01-16T02:44:57.805Z,1000.61
2019-01-16T02:45:57.814Z,1000.58
2019-01-16T02:46:57.766Z,1000.62
2019-01-16T02:47:57.784Z,1000.59
2019-01-16T02:48:57.763Z,1000.56
2019-01-16T02:49:57.793Z,1000.58
2019-01-16T02:50:57.747Z,1000.55
2019-01-16T02:51:57.703Z,1000.60
2019-01-16T02:52:57.705Z,1000.56
2019-01-16T02:53:57.723Z,1000.57
2019-01-16T02:54:57.720Z,1000.55
2019-01-16T02:55:57.829Z,1000.53
2019-01-16T02:56:57.680Z,1000.51
2019-01-16T02:57:57.645Z,1000.51
2019-01-16T02:58:57.644Z,1000.48
2019-01-16T02:59:57.656Z,1000.50
2019-01-16T03:00:57.735Z,1000.43
2019-01-16T03:01:57.623Z,1000.45
2019-01-16T03:02:57.581Z,1000.45
2019-01-16T03:03:57.599Z,1000.49
2019-01-16T03:04:57.579Z,1000.44
2019-01-16T03:05:57.573Z,1000.43
2019-01-16T03:06:57.586Z,1000.40
2019-01-16T03:07:57.557Z,1000.40
2019-01-16T03:08:57.529Z,1000.36
2019-01-16T03:09:57.518Z,1000.39
2019-01-16T03:10:57.566Z,1000.36
2019-01-16T03:11:57.520Z,1000.29
2019-01-16T03:12:57.495Z,1000.23
2019-01-16T03:13:57.501Z,1000.27
2019-01-16T03:14:57.563Z,1000.27
2019-01-16T03:15:57.479Z,1000.25
2019-01-16T03:16:57.446Z,1000.24
2019-01-16T03:17:57.430Z,1000.19
2019-01-16T03:19:04.490Z,1000.21
2019-01-16T03:19:58.440Z,1000.22
2019-01-16T03:20:57.482Z,1000.23
2019-01-16T03:21:57.403Z,1000.24
2019-01-16T03:22:57.375Z,1000.21
2019-01-16T03:23:57.382Z,1000.16
2019-01-16T03:24:57.349Z,1000.20
2019-01-16T03:25:57.365Z,1000.25
2019-01-16T03:26:57.374Z,1000.22
2019-01-16T03:27:57.318Z,1000.19
2019-01-16T03:28:57.314Z,1000.20
2019-01-16T03:29:57.345Z,1000.20
2019-01-16T03:30:57.330Z,1000.18
2019-01-16T03:31:57.290Z,1000.18
2019-01-16T03:32:57.261Z,1000.18
2019-01-16T03:33:57.251Z,1000.15
2019-01-16T03:34:57.249Z,1000.16
2019-01-16T03:35:57.274Z,1000.16
2019-01-16T03:36:57.247Z,1000.13
2019-01-16T03:37:57.207Z,1000.11
2019-01-16T03:38:57.219Z,1000.07
2019-01-16T03:39:57.196Z,1000.12
2019-01-16T03:40:57.194Z,1000.11
2019-01-16T03:41:57.177Z,1000.14
2019-01-16T03:42:57.161Z,1000.07
2019-01-16T03:43:57.145Z,1000.10
2019-01-16T03:44:57.159Z,1000.11
2019-01-16T03:45:57.169Z,1000.13
2019-01-16T03:46:57.139Z,1000.04
2019-01-16T03:47:57.105Z,1000.08
2019-01-16T03:48:57.133Z,1000.14
2019-01-16T03:49:57.094Z,1000.06
2019-01-16T03:50:57.140Z,1000.00
2019-01-16T03:51:57.091Z,1000.01
2019-01-16T03:52:57.050Z,1000.00
2019-01-16T03:53:57.086Z,1000.04
2019-01-16T03:54:57.017Z,999.98
2019-01-16T03:55:57.022Z,999.98
2019-01-16T03:56:57.052Z,999.98
2019-01-16T03:57:57.003Z,999.97
2019-01-16T03:58:57.003Z,999.94
2019-01-16T03:59:56.988Z,999.89
2019-01-16T04:00:56.970Z,999.90
2019-01-16T04:01:56.974Z,999.88
2019-01-16T04:02:56.981Z,999.88
2019-01-16T04:03:56.966Z,999.85
2019-01-16T04:04:56.939Z,999.84
2019-01-16T04:05:56.932Z,999.82
2019-01-16T04:06:56.910Z,999.85
2019-01-16T04:07:56.895Z,999.83
2019-01-16T04:08:56.897Z,999.82
2019-01-16T04:09:56.904Z,999.83
2019-01-16T04:10:56.889Z,999.87
2019-01-16T04:11:56.855Z,999.85
2019-01-16T04:12:57.053Z,999.83
2019-01-16T04:13:56.865Z,999.81
2019-01-16T04:14:56.823Z,999.77
2019-01-16T04:15:56.809Z,999.76
2019-01-16T04:16:56.788Z,999.73
2019-01-16T04:17:56.786Z,999.73
2019-01-16T04:18:56.767Z,999.67
2019-01-16T04:19:56.754Z,999.65
2019-01-16T04:20:56.738Z,999.68
2019-01-16T04:21:56.734Z,999.66
2019-01-16T04:22:56.754Z,999.64
2019-01-16T04:23:56.727Z,999.65
2019-01-16T04:24:56.702Z,999.64
2019-01-16T04:25:56.708Z,999.67
2019-01-16T04:26:58.337Z,999.66
2019-01-16T04:27:56.673Z,999.66
2019-01-16T04:28:56.650Z,999.60
2019-01-16T04:29:56.654Z,999.60
2019-01-16T04:30:56.634Z,999.57
2019-01-16T04:31:56.630Z,999.57
2019-01-16T04:32:56.654Z,999.55
2019-01-16T04:33:56.624Z,999.55
2019-01-16T04:34:56.622Z,999.53
2019-01-16T04:35:56.590Z,999.52
2019-01-16T04:36:56.571Z,999.53
2019-01-16T04:37:56.584Z,999.54
2019-01-16T04:38:56.589Z,999.51
2019-01-16T04:39:56.635Z,999.52
2019-01-16T04:40:56.534Z,999.47
2019-01-16T04:41:56.516Z,999.47
2019-01-16T04:42:56.526Z,999.50
2019-01-16T04:43:56.497Z,999.44
2019-01-16T04:44:56.524Z,999.49
2019-01-16T04:45:56.495Z,999.45
2019-01-16T04:46:56.454Z,999.44
2019-01-16T04:47:56.451Z,999.48
2019-01-16T04:48:56.575Z,999.44
2019-01-16T04:49:56.472Z,999.43
2019-01-16T04:50:56.416Z,999.48
2019-01-16T04:51:56.510Z,999.46
2019-01-16T04:52:56.432Z,999.43
2019-01-16T04:53:56.408Z,999.42
2019-01-16T04:54:56.401Z,999.42
2019-01-16T04:55:56.398Z,999.40
2019-01-16T04:56:56.364Z,999.36
2019-01-16T04:57:56.372Z,999.34
2019-01-16T04:58:56.332Z,999.36
2019-01-16T04:59:56.317Z,999.35
2019-01-16T05:00:56.326Z,999.38
2019-01-16T05:01:56.350Z,999.36
2019-01-16T05:02:56.308Z,999.32
2019-01-16T05:03:56.270Z,999.29
2019-01-16T05:04:56.273Z,999.31
2019-01-16T05:05:56.267Z,999.29
2019-01-16T05:06:56.270Z,999.30
2019-01-16T05:07:56.292Z,999.32
2019-01-16T05:08:56.242Z,999.29
2019-01-16T05:09:56.211Z,999.31
2019-01-16T05:10:56.198Z,999.26
2019-01-16T05:11:56.258Z,999.28
2019-01-16T05:12:56.175Z,999.18
2019-01-16T05:13:56.178Z,999.17
2019-01-16T05:14:56.219Z,999.22
2019-01-16T05:15:56.145Z,999.16
2019-01-16T05:16:56.144Z,999.15
2019-01-16T05:17:56.137Z,999.17
2019-01-16T05:18:56.126Z,999.16
2019-01-16T05:19:56.163Z,999.12
2019-01-16T05:20:56.184Z,999.18
2019-01-16T05:21:56.086Z,999.10
2019-01-16T05:22:56.104Z,999.11
2019-01-16T05:23:56.061Z,999.14
2019-01-16T05:24:56.050Z,999.17
2019-01-16T05:25:56.059Z,999.12
2019-01-16T05:26:56.050Z,999.10
2019-01-16T05:27:56.031Z,999.12
2019-01-16T05:28:56.028Z,999.10
2019-01-16T05:29:56.045Z,999.05
2019-01-16T05:30:56.082Z,999.05
2019-01-16T05:31:55.997Z,999.01
2019-01-16T05:32:55.988Z,999.02
2019-01-16T05:33:55.962Z,998.97
2019-01-16T05:34:55.938Z,998.99
2019-01-16T05:35:56.107Z,999.02
2019-01-16T05:36:55.920Z,999.03
2019-01-16T05:37:55.922Z,999.03
2019-01-16T05:38:55.923Z,999.03
2019-01-16T05:39:55.910Z,999.02
2019-01-16T05:40:55.909Z,999.01
2019-01-16T05:41:55.889Z,998.98
2019-01-16T05:42:55.874Z,999.00
2019-01-16T05:43:55.856Z,999.01
2019-01-16T05:44:55.848Z,998.99
2019-01-16T05:45:55.836Z,998.99
2019-01-16T05:46:55.970Z,998.93
2019-01-16T05:47:55.823Z,998.92
2019-01-16T05:48:55.803Z,998.91
2019-01-16T05:49:55.984Z,998.94
2019-01-16T05:50:55.810Z,998.93
2019-01-16T05:51:55.767Z,998.94
2019-01-16T05:52:55.772Z,998.95
2019-01-16T05:53:55.735Z,998.90
2019-01-16T05:54:55.774Z,998.93
2019-01-16T05:55:55.745Z,998.95
2019-01-16T05:56:55.712Z,998.89
2019-01-16T05:57:55.706Z,998.94
2019-01-16T05:58:55.737Z,998.95
2019-01-16T05:59:55.676Z,998.89
2019-01-16T06:00:55.688Z,998.97
2019-01-16T06:01:55.650Z,999.03
2019-01-16T06:02:55.633Z,999.00
2019-01-16T06:03:55.620Z,999.01
2019-01-16T06:04:55.643Z,998.98
2019-01-16T06:05:55.608Z,998.92
2019-01-16T06:06:55.678Z,998.97
2019-01-16T06:07:55.580Z,998.97
2019-01-16T06:08:55.633Z,998.92
2019-01-16T06:09:55.604Z,998.97
2019-01-16T06:10:55.551Z,998.98
2019-01-16T06:11:55.550Z,998.98
2019-01-16T06:12:55.534Z,998.96
2019-01-16T06:13:55.585Z,998.98
2019-01-16T06:14:55.507Z,998.91
2019-01-16T06:15:55.550Z,998.91
2019-01-16T06:16:55.489Z,998.93
2019-01-16T06:17:55.491Z,998.90
2019-01-16T06:18:55.612Z,998.92
2019-01-16T06:19:55.523Z,998.91
2019-01-16T06:20:55.487Z,998.87
2019-01-16T06:21:55.443Z,998.92
2019-01-16T06:22:55.509Z,998.97
2019-01-16T06:23:55.422Z,998.90
2019-01-16T06:24:55.410Z,998.91
2019-01-16T06:25:55.411Z,998.89
2019-01-16T06:26:55.419Z,998.95
2019-01-16T06:27:55.388Z,999.00
2019-01-16T06:28:55.363Z,998.95
2019-01-16T06:29:55.355Z,998.97
2019-01-16T06:30:55.404Z,998.93
2019-01-16T06:31:55.403Z,998.94
2019-01-16T06:32:55.330Z,998.90
2019-01-16T06:33:55.302Z,998.88
2019-01-16T06:34:55.324Z,998.85
2019-01-16T06:35:55.314Z,998.86
2019-01-16T06:36:55.289Z,998.85
2019-01-16T06:37:55.335Z,998.86
2019-01-16T06:38:55.247Z,998.88
2019-01-16T06:39:55.238Z,998.88
2019-01-16T06:40:55.253Z,998.92
2019-01-16T06:41:55.217Z,998.88
2019-01-16T06:42:55.215Z,998.78
2019-01-16T06:43:55.248Z,998.78
2019-01-16T06:44:55.184Z,998.79
2019-01-16T06:45:55.202Z,998.83
2019-01-16T06:46:55.184Z,998.83
2019-01-16T06:47:55.148Z,998.80
2019-01-16T06:48:55.136Z,998.82
2019-01-16T06:50:01.632Z,998.80
2019-01-16T06:50:56.112Z,998.77
2019-01-16T06:51:55.186Z,998.78
2019-01-16T06:52:55.113Z,998.77
2019-01-16T06:53:55.104Z,998.78
2019-01-16T06:54:55.084Z,998.77
2019-01-16T06:55:55.087Z,998.78
2019-01-16T06:56:55.064Z,998.73
2019-01-16T06:57:55.071Z,998.75
2019-01-16T06:58:55.048Z,998.72
2019-01-16T06:59:55.044Z,998.74
2019-01-16T07:00:55.053Z,998.79
2019-01-16T07:01:55.003Z,998.76
2019-01-16T07:02:55.008Z,998.78
2019-01-16T07:03:55.010Z,998.76
2019-01-16T07:04:55.008Z,998.76
2019-01-16T07:05:54.972Z,998.68
2019-01-16T07:06:54.938Z,998.66
2019-01-16T07:07:54.930Z,998.66
2019-01-16T07:08:54.924Z,998.61
2019-01-16T07:09:54.923Z,998.65
2019-01-16T07:10:55.033Z,998.67
2019-01-16T07:11:54.878Z,998.69
2019-01-16T07:12:54.875Z,998.70
2019-01-16T07:13:54.912Z,998.70
2019-01-16T07:14:54.869Z,998.78
2019-01-16T07:15:54.861Z,998.79
2019-01-16T07:16:54.843Z,998.85
2019-01-16T07:17:54.840Z,998.85
2019-01-16T07:18:54.806Z,998.71
2019-01-16T07:19:54.813Z,998.70
2019-01-16T07:20:54.792Z,998.64
2019-01-16T07:21:54.781Z,998.65
2019-01-16T07:22:54.859Z,998.62
2019-01-16T07:23:54.770Z,998.64
2019-01-16T07:24:54.745Z,998.59
2019-01-16T07:25:54.829Z,998.62
2019-01-16T07:26:54.722Z,998.61
2019-01-16T07:27:54.708Z,998.55
2019-01-16T07:28:54.710Z,998.62
2019-01-16T07:29:54.682Z,998.61
2019-01-16T07:30:54.718Z,998.66
2019-01-16T07:31:54.665Z,998.71
2019-01-16T07:32:54.657Z,998.68
2019-01-16T07:33:54.688Z,998.64
2019-01-16T07:34:54.639Z,998.60
2019-01-16T07:35:54.631Z,998.72
2019-01-16T07:36:54.667Z,998.65
2019-01-16T07:37:54.611Z,998.62
2019-01-16T07:38:54.628Z,998.69
2019-01-16T07:39:54.632Z,998.69
2019-01-16T07:40:54.565Z,998.72
2019-01-16T07:41:54.597Z,998.73
2019-01-16T07:42:54.596Z,998.69
2019-01-16T07:43:54.557Z,998.72
2019-01-16T07:44:54.537Z,998.72
2019-01-16T07:45:54.520Z,998.71
2019-01-16T07:46:54.513Z,998.70
2019-01-16T07:47:54.509Z,998.73
2019-01-16T07:48:54.521Z,998.73
2019-01-16T07:49:54.504Z,998.72
2019-01-16T07:50:54.502Z,998.68
2019-01-16T07:51:54.518Z,998.71
2019-01-16T07:52:54.448Z,998.71
2019-01-16T07:53:54.549Z,998.69
2019-01-16T07:54:54.428Z,998.66
2019-01-16T07:55:54.419Z,998.65
2019-01-16T07:56:54.435Z,998.56
2019-01-16T07:57:54.599Z,998.64
2019-01-16T07:58:54.398Z,998.59
2019-01-16T07:59:54.388Z,998.65
2019-01-16T08:00:54.374Z,998.55
2019-01-16T08:01:54.432Z,998.60
2019-01-16T08:02:54.369Z,998.57
2019-01-16T08:03:54.366Z,998.63
2019-01-16T08:04:54.319Z,998.59
2019-01-16T08:05:54.313Z,998.60
2019-01-16T08:06:54.322Z,998.59
2019-01-16T08:07:54.287Z,998.57
2019-01-16T08:08:54.280Z,998.62
2019-01-16T08:09:54.320Z,998.57
2019-01-16T08:10:54.258Z,998.57
2019-01-16T08:11:54.318Z,998.59
2019-01-16T08:12:54.321Z,998.52
2019-01-16T08:13:54.257Z,998.46
2019-01-16T08:14:54.284Z,998.47
2019-01-16T08:15:54.216Z,998.49
2019-01-16T08:16:54.227Z,998.45
2019-01-16T08:17:54.172Z,998.49
2019-01-16T08:18:54.176Z,998.54
2019-01-16T08:19:54.287Z,998.55
2019-01-16T08:20:54.150Z,998.53
2019-01-16T08:21:54.133Z,998.57
2019-01-16T08:22:54.117Z,998.57
2019-01-16T08:23:54.118Z,998.54
2019-01-16T08:24:54.098Z,998.51
2019-01-16T08:25:54.108Z,998.53
2019-01-16T08:26:54.073Z,998.47
2019-01-16T08:27:54.082Z,998.51
2019-01-16T08:28:54.084Z,998.46
2019-01-16T08:29:54.069Z,998.46
2019-01-16T08:30:54.022Z,998.46
2019-01-16T08:31:54.114Z,998.43
2019-01-16T08:32:54.065Z,998.51
2019-01-16T08:33:54.011Z,998.47
2019-01-16T08:34:53.982Z,998.49
2019-01-16T08:35:54.030Z,998.53
2019-01-16T08:36:53.992Z,998.54
2019-01-16T08:37:53.970Z,998.54
2019-01-16T08:38:53.959Z,998.59
2019-01-16T08:39:53.945Z,998.62
2019-01-16T08:40:53.931Z,998.65
2019-01-16T08:41:53.915Z,998.69
2019-01-16T08:42:53.909Z,998.68
2019-01-16T08:43:53.900Z,998.64
2019-01-16T08:44:53.883Z,998.70
2019-01-16T08:45:53.999Z,998.60
2019-01-16T08:46:53.875Z,998.68
2019-01-16T08:47:53.866Z,998.64
2019-01-16T08:48:53.831Z,998.68
2019-01-16T08:49:53.918Z,998.71
2019-01-16T08:50:53.807Z,998.73
2019-01-16T08:51:57.770Z,998.71
2019-01-16T08:52:53.787Z,998.72
2019-01-16T08:53:53.792Z,998.66
2019-01-16T08:54:53.806Z,998.59
2019-01-16T08:55:53.776Z,998.63
2019-01-16T08:56:53.739Z,998.62
2019-01-16T08:57:53.747Z,998.69
2019-01-16T08:58:53.873Z,998.63
2019-01-16T08:59:53.711Z,998.62
2019-01-16T09:00:53.700Z,998.62
2019-01-16T09:01:53.722Z,998.62
2019-01-16T09:02:53.696Z,998.55
2019-01-16T09:03:53.691Z,998.52
2019-01-16T09:04:53.685Z,998.52
2019-01-16T09:05:53.653Z,998.52
2019-01-16T09:06:53.635Z,998.48
2019-01-16T09:07:53.635Z,998.49
2019-01-16T09:08:53.605Z,998.52
2019-01-16T09:09:53.605Z,998.46
2019-01-16T09:10:53.613Z,998.48
2019-01-16T09:11:53.641Z,998.42
2019-01-16T09:12:53.585Z,998.36
2019-01-16T09:13:53.611Z,998.34
2019-01-16T09:14:53.553Z,998.33
2019-01-16T09:15:53.536Z,998.33
2019-01-16T09:16:53.532Z,998.37
2019-01-16T09:17:53.670Z,998.39
2019-01-16T09:18:53.503Z,998.39
2019-01-16T09:19:53.524Z,998.41
2019-01-16T09:20:53.480Z,998.35
2019-01-16T09:21:53.558Z,998.31
2019-01-16T09:22:53.501Z,998.26
2019-01-16T09:23:53.451Z,998.33
2019-01-16T09:24:53.454Z,998.33
2019-01-16T09:25:53.429Z,998.37
2019-01-16T09:26:53.511Z,998.33
2019-01-16T09:27:53.435Z,998.27
2019-01-16T09:28:53.412Z,998.31
2019-01-16T09:29:53.389Z,998.26
2019-01-16T09:30:53.379Z,998.35
2019-01-16T09:31:53.444Z,998.31
2019-01-16T09:32:53.399Z,998.34
2019-01-16T09:33:53.364Z,998.35
2019-01-16T09:34:53.378Z,998.40
2019-01-16T09:35:53.333Z,998.44
2019-01-16T09:36:53.440Z,998.38
2019-01-16T09:37:53.302Z,998.36
2019-01-16T09:38:53.310Z,998.40
2019-01-16T09:39:53.318Z,998.41
2019-01-16T09:40:53.262Z,998.43
2019-01-16T09:41:53.258Z,998.42
2019-01-16T09:42:53.352Z,998.39
2019-01-16T09:43:53.308Z,998.40
2019-01-16T09:44:53.316Z,998.36
2019-01-16T09:45:53.334Z,998.39
2019-01-16T09:46:53.280Z,998.35
2019-01-16T09:47:53.210Z,998.33
2019-01-16T09:48:53.217Z,998.28
2019-01-16T09:49:53.176Z,998.35
2019-01-16T09:50:53.169Z,998.33
2019-01-16T09:51:53.564Z,998.38
2019-01-16T09:52:53.145Z,998.37
2019-01-16T09:53:53.202Z,998.34
2019-01-16T09:54:53.117Z,998.28
2019-01-16T09:55:53.122Z,998.27
2019-01-16T09:56:53.145Z,998.22
2019-01-16T09:57:53.109Z,998.19
2019-01-16T09:58:53.073Z,998.21
2019-01-16T09:59:53.067Z,998.16
2019-01-16T10:00:53.048Z,998.18
2019-01-16T10:01:53.043Z,998.12
2019-01-16T10:02:53.049Z,998.12
2019-01-16T10:03:53.077Z,998.08
2019-01-16T10:04:53.012Z,998.07
2019-01-16T10:05:52.997Z,998.11
2019-01-16T10:06:52.992Z,998.10
2019-01-16T10:07:53.005Z,998.09
2019-01-16T10:08:52.998Z,998.11
2019-01-16T10:09:52.954Z,998.14
2019-01-16T10:10:52.985Z,998.12
2019-01-16T10:11:52.941Z,998.09
2019-01-16T10:12:52.930Z,998.04
2019-01-16T10:13:52.979Z,998.02
2019-01-16T10:14:52.916Z,997.99
2019-01-16T10:15:53.026Z,998.00
2019-01-16T10:16:52.973Z,998.03
2019-01-16T10:17:52.995Z,997.99
2019-01-16T10:18:52.877Z,997.97
2019-01-16T10:19:52.846Z,997.94
2019-01-16T10:20:55.826Z,997.92
2019-01-16T10:21:52.838Z,997.95
2019-01-16T10:22:52.838Z,997.93
2019-01-16T10:23:52.820Z,997.96
2019-01-16T10:24:52.792Z,997.90
2019-01-16T10:25:52.811Z,997.86
2019-01-16T10:26:52.825Z,997.79
2019-01-16T10:27:52.763Z,997.79
2019-01-16T10:28:52.756Z,997.78
2019-01-16T10:29:52.736Z,997.69
2019-01-16T10:30:52.854Z,997.66
2019-01-16T10:31:52.751Z,997.67
2019-01-16T10:32:52.760Z,997.61
2019-01-16T10:33:52.730Z,997.59
2019-01-16T10:34:52.702Z,997.60
2019-01-16T10:35:52.700Z,997.58
2019-01-16T10:36:52.667Z,997.46
2019-01-16T10:37:52.744Z,997.46
2019-01-16T10:38:52.644Z,997.42
2019-01-16T10:39:52.630Z,997.39
2019-01-16T10:40:52.625Z,997.39
2019-01-16T10:41:52.626Z,997.33
2019-01-16T10:42:52.651Z,997.38
2019-01-16T10:43:52.617Z,997.36
2019-01-16T10:44:52.584Z,997.34
2019-01-16T10:45:52.609Z,997.35
2019-01-16T10:46:52.567Z,997.34
2019-01-16T10:47:52.550Z,997.27
2019-01-16T10:48:52.615Z,997.27
2019-01-16T10:49:52.552Z,997.24
2019-01-16T10:50:52.541Z,997.19
2019-01-16T10:51:52.497Z,997.19
2019-01-16T10:52:52.526Z,997.18
2019-01-16T10:53:52.514Z,997.14
2019-01-16T10:54:52.505Z,997.19
2019-01-16T10:55:52.480Z,997.08
2019-01-16T10:56:52.466Z,997.07
2019-01-16T10:57:52.498Z,997.09
2019-01-16T10:58:52.443Z,997.04
2019-01-16T10:59:52.443Z,997.00
2019-01-16T11:00:52.445Z,997.06
2019-01-16T11:01:52.389Z,997.08
2019-01-16T11:02:52.404Z,997.04
2019-01-16T11:03:52.422Z,997.04
2019-01-16T11:04:52.361Z,997.01
2019-01-16T11:05:52.363Z,997.03
2019-01-16T11:06:52.386Z,997.05
2019-01-16T11:07:52.402Z,997.03
2019-01-16T11:08:52.324Z,997.02
2019-01-16T11:09:52.302Z,997.00
2019-01-16T11:10:52.343Z,997.02
2019-01-16T11:11:52.314Z,997.02
2019-01-16T11:12:52.336Z,996.99
2019-01-16T11:13:52.274Z,996.92
2019-01-16T11:14:52.277Z,996.90
2019-01-16T11:15:52.248Z,996.89
2019-01-16T11:16:56.693Z,996.89
2019-01-16T11:17:52.245Z,996.89
2019-01-16T11:18:52.260Z,996.87
2019-01-16T11:19:52.219Z,996.84
2019-01-16T11:20:52.198Z,996.78
2019-01-16T11:21:52.177Z,996.74
2019-01-16T11:22:52.201Z,996.76
2019-01-16T11:23:52.308Z,996.74
2019-01-16T11:24:52.145Z,996.71
2019-01-16T11:25:52.144Z,996.72
2019-01-16T11:26:52.157Z,996.71
2019-01-16T11:27:52.113Z,996.63
2019-01-16T11:28:52.121Z,996.66
2019-01-16T11:29:52.135Z,996.61
2019-01-16T11:30:52.082Z,996.59
2019-01-16T11:31:52.123Z,996.56
2019-01-16T11:32:52.079Z,996.58
2019-01-16T11:33:52.062Z,996.60
2019-01-16T11:34:52.050Z,996.55
2019-01-16T11:35:52.106Z,996.47
2019-01-16T11:36:52.007Z,996.51
2019-01-16T11:37:52.015Z,996.49
2019-01-16T11:38:52.002Z,996.46
2019-01-16T11:39:52.024Z,996.40
2019-01-16T11:40:51.992Z,996.37
2019-01-16T11:41:51.990Z,996.38
2019-01-16T11:42:51.976Z,996.36
2019-01-16T11:43:52.000Z,996.35
2019-01-16T11:44:51.932Z,996.31
2019-01-16T11:45:51.927Z,996.26
2019-01-16T11:46:51.919Z,996.21
2019-01-16T11:47:51.913Z,996.22
2019-01-16T11:48:51.884Z,996.22
2019-01-16T11:49:51.883Z,996.20
2019-01-16T11:50:51.886Z,996.22
2019-01-16T11:51:51.878Z,996.20
2019-01-16T11:52:51.866Z,996.19
2019-01-16T11:53:51.858Z,996.09
2019-01-16T11:54:51.829Z,996.10
2019-01-16T11:55:51.801Z,996.02
2019-01-16T11:56:51.817Z,996.03
2019-01-16T11:57:51.808Z,996.02
2019-01-16T11:58:51.802Z,996.04
2019-01-16T11:59:51.785Z,996.04
2019-01-16T12:00:51.767Z,996.00
2019-01-16T12:01:51.762Z,996.00
2019-01-16T12:02:51.774Z,996.01
2019-01-16T12:03:51.755Z,996.00
2019-01-16T12:04:51.758Z,995.93
2019-01-16T12:05:51.694Z,995.96
2019-01-16T12:06:51.685Z,995.93
2019-01-16T12:07:51.701Z,995.89
2019-01-16T12:08:51.676Z,995.93
2019-01-16T12:09:51.673Z,995.97
2019-01-16T12:10:51.696Z,995.94
2019-01-16T12:11:51.648Z,995.94
2019-01-16T12:12:51.630Z,995.92
2019-01-16T12:13:51.610Z,995.86
2019-01-16T12:14:51.617Z,995.79
2019-01-16T12:15:51.631Z,995.75
2019-01-16T12:16:51.583Z,995.75
2019-01-16T12:17:51.573Z,995.78
2019-01-16T12:18:51.565Z,995.72
2019-01-16T12:19:51.740Z,995.70
2019-01-16T12:20:51.559Z,995.69
2019-01-16T12:21:51.542Z,995.62